createdAt,value
2022-11-20T00:02:28.495Z,35.63
2022-11-20T00:05:34.046Z,34.65
2022-11-20T00:08:36.907Z,33.42
2022-11-20T00:11:40.185Z,36.65
2022-11-20T00:14:43.071Z,33.10
2022-11-20T00:17:45.877Z,38.63
2022-11-20T00:20:48.992Z,32.75
2022-11-20T00:23:54.875Z,36.65
2022-11-20T00:26:58.027Z,40.63
2022-11-20T00:30:01.000Z,38.00
2022-11-20T00:33:04.138Z,37.87
2022-11-20T00:36:09.177Z,35.60
2022-11-20T00:39:11.970Z,37.88
2022-11-20T00:42:14.983Z,34.72
2022-11-20T00:45:17.796Z,35.43
2022-11-20T00:48:20.691Z,35.87
2022-11-20T00:51:26.367Z,33.13
2022-11-20T00:54:29.716Z,37.58
2022-11-20T00:57:33.012Z,34.67
2022-11-20T01:00:36.126Z,37.13
2022-11-20T01:03:41.680Z,34.63
2022-11-20T01:06:44.566Z,35.08
2022-11-20T01:09:47.345Z,35.80
2022-11-20T01:13:10.160Z,37.80
2022-11-20T01:16:17.192Z,36.43
2022-11-20T01:19:22.343Z,38.93
2022-11-20T01:22:25.334Z,37.13
2022-11-20T01:25:28.437Z,36.10
2022-11-20T01:28:32.127Z,34.67
2022-11-20T01:31:37.937Z,42.53
2022-11-20T01:34:40.767Z,37.67
2022-11-20T01:37:43.536Z,39.08
2022-11-20T01:40:46.582Z,37.92
2022-11-20T01:43:49.386Z,39.92
2022-11-20T01:46:58.388Z,38.20
2022-11-20T01:50:12.118Z,42.83
2022-11-20T01:53:17.627Z,40.08
2022-11-20T01:56:20.614Z,37.67
2022-11-20T01:59:24.596Z,40.50
2022-11-20T02:02:27.748Z,38.67
2022-11-20T02:05:48.239Z,37.57
2022-11-20T02:08:52.663Z,38.35
2022-11-20T02:11:55.624Z,37.58
2022-11-20T02:14:58.949Z,32.17
2022-11-20T02:18:01.954Z,38.87
2022-11-20T02:21:15.065Z,41.43
2022-11-20T02:24:21.691Z,41.13
2022-11-20T02:27:24.542Z,37.35
2022-11-20T02:30:27.410Z,35.05
2022-11-20T02:33:30.320Z,39.03
2022-11-20T02:36:34.913Z,40.70
2022-11-20T02:39:37.694Z,39.50
2022-11-20T02:42:40.571Z,44.70
2022-11-20T02:45:43.773Z,37.83
2022-11-20T02:48:46.660Z,38.37
2022-11-20T02:51:49.482Z,35.80
2022-11-20T02:54:52.498Z,36.83
2022-11-20T02:57:55.450Z,35.10
2022-11-20T03:00:58.548Z,35.00
2022-11-20T03:04:01.503Z,35.57
2022-11-20T03:07:05.117Z,33.27
2022-11-20T03:10:08.609Z,32.83
2022-11-20T03:13:11.442Z,34.63
2022-11-20T03:16:16.969Z,32.78
2022-11-20T03:19:20.000Z,37.13
2022-11-20T03:22:23.119Z,32.73
2022-11-20T03:25:26.022Z,38.58
2022-11-20T03:28:28.967Z,37.00
2022-11-20T03:31:37.722Z,35.97
2022-11-20T03:34:40.598Z,38.80
2022-11-20T03:37:43.607Z,34.87
2022-11-20T03:40:46.436Z,44.42
2022-11-20T03:43:51.407Z,46.42
2022-11-20T03:46:54.294Z,35.90
2022-11-20T03:49:57.241Z,65.73
2022-11-20T03:53:00.057Z,69.27
2022-11-20T03:56:02.876Z,35.85
2022-11-20T03:59:06.410Z,37.63
2022-11-20T04:02:09.338Z,35.60
2022-11-20T04:05:12.281Z,34.80
2022-11-20T04:08:15.187Z,32.13
2022-11-20T04:11:32.309Z,32.63
2022-11-20T04:14:35.187Z,36.95
2022-11-20T04:17:37.945Z,35.60
2022-11-20T04:20:40.866Z,35.87
2022-11-20T04:23:43.691Z,30.37
2022-11-20T04:26:46.529Z,30.40
2022-11-20T04:29:49.592Z,32.63
2022-11-20T04:32:53.224Z,34.00
2022-11-20T04:35:56.180Z,30.50
2022-11-20T04:39:04.805Z,29.50
2022-11-20T04:42:28.150Z,34.70
2022-11-20T04:45:30.964Z,29.35
2022-11-20T04:48:34.192Z,36.50
2022-11-20T04:51:37.117Z,30.30
2022-11-20T04:54:39.925Z,30.30
2022-11-20T04:57:42.937Z,29.98
2022-11-20T05:00:46.096Z,31.20
2022-11-20T05:03:49.523Z,28.92
2022-11-20T05:06:52.423Z,29.17
2022-11-20T05:09:55.286Z,32.30
2022-11-20T05:12:59.027Z,32.28
2022-11-20T05:16:10.303Z,30.23
2022-11-20T05:19:13.513Z,27.17
2022-11-20T05:22:16.322Z,34.00
2022-11-20T05:25:19.342Z,30.53
2022-11-20T05:28:22.599Z,33.47
2022-11-20T05:31:27.951Z,31.05
2022-11-20T05:34:31.199Z,32.35
2022-11-20T05:37:34.240Z,32.03
2022-11-20T05:40:37.237Z,32.13
2022-11-20T05:43:41.666Z,32.90
2022-11-20T05:46:44.545Z,32.78
2022-11-20T05:49:47.746Z,33.22
2022-11-20T05:52:50.596Z,33.73
2022-11-20T05:56:00.978Z,27.50
2022-11-20T05:59:03.805Z,36.88
2022-11-20T06:02:07.024Z,34.05
2022-11-20T06:05:10.002Z,34.75
2022-11-20T06:08:12.850Z,40.87
2022-11-20T06:11:16.593Z,40.40
2022-11-20T06:14:19.452Z,37.20
2022-11-20T06:17:22.304Z,34.63
2022-11-20T06:20:25.104Z,32.58
2022-11-20T06:23:30.308Z,39.30
2022-11-20T06:26:33.334Z,30.87
2022-11-20T06:29:36.256Z,36.50
2022-11-20T06:32:39.197Z,37.35
2022-11-20T06:35:42.189Z,35.95
2022-11-20T06:38:45.698Z,36.93
2022-11-20T06:41:50.020Z,40.33
2022-11-20T06:44:54.122Z,32.67
2022-11-20T06:47:59.098Z,35.08
2022-11-20T06:51:04.859Z,36.67
2022-11-20T06:54:08.136Z,30.80
2022-11-20T06:57:11.086Z,34.63
2022-11-20T07:00:15.255Z,34.33
2022-11-20T07:03:18.321Z,29.58
2022-11-20T07:06:21.401Z,32.70
2022-11-20T07:09:24.495Z,31.17
2022-11-20T07:12:28.056Z,37.00
2022-11-20T07:15:31.403Z,30.80
2022-11-20T07:18:34.979Z,33.97
2022-11-20T07:21:38.217Z,33.00
2022-11-20T07:24:45.858Z,31.87
2022-11-20T07:27:49.400Z,33.73
2022-11-20T07:30:53.885Z,31.37
2022-11-20T07:33:56.757Z,37.45
2022-11-20T07:36:59.651Z,34.22
2022-11-20T07:40:02.559Z,33.93
2022-11-20T07:43:05.513Z,34.30
2022-11-20T07:46:08.613Z,35.85
2022-11-20T07:49:11.582Z,34.80
2022-11-20T07:52:14.533Z,35.38
2022-11-20T07:55:17.684Z,37.97
2022-11-20T07:58:21.429Z,38.03
2022-11-20T08:01:24.583Z,35.75
2022-11-20T08:04:27.710Z,35.85
2022-11-20T08:07:30.793Z,34.42
2022-11-20T08:10:33.776Z,36.67
2022-11-20T08:13:55.172Z,33.63
2022-11-20T08:16:58.105Z,34.05
2022-11-20T08:20:01.118Z,38.60
2022-11-20T08:23:09.380Z,35.70
2022-11-20T08:26:12.697Z,36.83
2022-11-20T08:29:15.847Z,41.17
2022-11-20T08:32:18.651Z,32.88
2022-11-20T08:35:22.796Z,34.25
2022-11-20T08:38:26.501Z,35.10
2022-11-20T08:41:34.469Z,37.37
2022-11-20T08:44:37.499Z,39.83
2022-11-20T08:47:40.455Z,34.75
2022-11-20T08:50:43.339Z,34.08
2022-11-20T08:53:46.520Z,40.10
2022-11-20T08:56:49.972Z,37.83
2022-11-20T09:00:09.063Z,36.20
2022-11-20T09:03:13.734Z,34.38
2022-11-20T09:06:17.428Z,38.50
2022-11-20T09:09:20.941Z,34.42
2022-11-20T09:12:24.251Z,35.90
2022-11-20T09:15:27.370Z,39.57
2022-11-20T09:18:33.037Z,38.38
2022-11-20T09:21:36.002Z,33.40
2022-11-20T09:24:39.841Z,36.90
2022-11-20T09:27:44.991Z,38.97
2022-11-20T09:30:48.087Z,39.37
2022-11-20T09:33:51.686Z,37.55
2022-11-20T09:36:54.689Z,38.63
2022-11-20T09:39:57.770Z,37.85
2022-11-20T09:43:14.299Z,38.30
2022-11-20T09:46:42.024Z,41.43
2022-11-20T09:50:03.885Z,36.42
2022-11-20T09:53:12.694Z,35.90
2022-11-20T09:56:18.310Z,40.97
2022-11-20T09:59:33.896Z,38.47
2022-11-20T10:02:39.116Z,37.93
2022-11-20T10:05:52.773Z,38.67
2022-11-20T10:09:16.106Z,37.15
2022-11-20T10:12:37.585Z,40.35
2022-11-20T10:15:43.458Z,39.97
2022-11-20T10:18:49.744Z,40.27
2022-11-20T10:22:12.193Z,40.38
2022-11-20T10:25:18.143Z,38.60
2022-11-20T10:28:41.203Z,43.28
2022-11-20T10:31:47.617Z,39.60
2022-11-20T10:34:56.419Z,41.50
2022-11-20T10:38:06.454Z,38.58
2022-11-20T10:41:26.815Z,39.20
2022-11-20T10:44:53.879Z,38.53
2022-11-20T10:48:22.402Z,37.23
2022-11-20T10:51:57.521Z,41.03
2022-11-20T10:55:25.151Z,39.22
2022-11-20T10:58:39.058Z,34.60
2022-11-20T11:01:43.778Z,37.05
2022-11-20T11:04:54.413Z,37.87
2022-11-20T11:07:57.968Z,40.03
2022-11-20T11:11:04.249Z,35.85
2022-11-20T11:14:11.208Z,34.45
2022-11-20T11:17:24.755Z,35.85
2022-11-20T11:20:28.201Z,36.27
2022-11-20T11:23:37.574Z,35.77
2022-11-20T11:26:41.008Z,38.35
2022-11-20T11:29:43.961Z,37.17
2022-11-20T11:32:50.217Z,34.20
2022-11-20T11:36:05.198Z,36.70
2022-11-20T11:39:14.224Z,34.10
2022-11-20T11:42:19.311Z,36.78
2022-11-20T11:45:25.594Z,39.63
2022-11-20T11:48:28.577Z,38.53
2022-11-20T11:51:37.017Z,42.20
2022-11-20T11:54:49.049Z,36.13
2022-11-20T11:57:58.164Z,33.53
2022-11-20T12:01:13.807Z,37.38
2022-11-20T12:04:31.905Z,37.65
2022-11-20T12:07:48.827Z,38.33
2022-11-20T12:11:14.739Z,36.37
2022-11-20T12:14:25.313Z,33.75
2022-11-20T12:17:29.111Z,33.92
2022-11-20T12:20:39.116Z,32.40
2022-11-20T12:24:16.585Z,33.73
2022-11-20T12:27:42.966Z,31.80
2022-11-20T12:31:16.028Z,35.42
2022-11-20T12:34:40.209Z,34.03
2022-11-20T12:37:49.374Z,30.08
2022-11-20T12:41:13.106Z,32.93
2022-11-20T12:45:22.478Z,31.80
2022-11-20T12:48:46.492Z,32.33
2022-11-20T12:52:08.654Z,32.05
2022-11-20T12:55:52.597Z,32.55
2022-11-20T12:59:20.767Z,33.60
2022-11-20T13:03:02.484Z,40.43
2022-11-20T13:06:12.126Z,32.45
2022-11-20T13:09:17.164Z,35.10
2022-11-20T13:12:33.108Z,36.42
2022-11-20T13:15:48.506Z,36.60
2022-11-20T13:18:51.938Z,36.27
2022-11-20T13:21:54.903Z,35.70
2022-11-20T13:24:58.230Z,34.65
2022-11-20T13:28:04.877Z,37.10
2022-11-20T13:31:29.183Z,33.27
2022-11-20T13:34:32.398Z,36.47
2022-11-20T13:37:37.787Z,35.72
2022-11-20T13:41:25.107Z,36.58
2022-11-20T13:44:34.561Z,35.47
2022-11-20T13:47:37.792Z,33.50
2022-11-20T13:51:10.876Z,34.67
2022-11-20T13:54:42.836Z,35.33
2022-11-20T13:58:11.238Z,33.33
2022-11-20T14:01:26.017Z,36.30
2022-11-20T14:04:39.611Z,30.73
2022-11-20T14:07:44.094Z,35.63
2022-11-20T14:10:47.372Z,31.58
2022-11-20T14:14:06.750Z,30.58
2022-11-20T14:17:21.603Z,32.20
2022-11-20T14:20:28.553Z,32.37
2022-11-20T14:23:35.046Z,33.03
2022-11-20T14:26:44.753Z,31.12
2022-11-20T14:29:49.536Z,30.23
2022-11-20T14:32:55.632Z,31.05
2022-11-20T14:35:59.542Z,29.93
2022-11-20T14:39:02.850Z,30.40
2022-11-20T14:42:17.300Z,30.15
2022-11-20T14:45:22.228Z,28.90
2022-11-20T14:48:40.034Z,27.35
2022-11-20T14:51:45.321Z,31.07
2022-11-20T14:54:54.019Z,33.40
2022-11-20T14:58:21.594Z,32.80
2022-11-20T15:01:33.229Z,29.73
2022-11-20T15:04:58.591Z,29.60
2022-11-20T15:08:09.957Z,29.00
2022-11-20T15:11:19.511Z,30.40
2022-11-20T15:14:23.184Z,29.12
2022-11-20T15:17:27.776Z,30.00
2022-11-20T15:20:39.231Z,28.75
2022-11-20T15:23:45.880Z,26.77
2022-11-20T15:26:49.230Z,27.67
2022-11-20T15:29:53.705Z,28.92
2022-11-20T15:32:58.039Z,28.73
2022-11-20T15:36:01.886Z,33.55
2022-11-20T15:39:05.696Z,30.83
2022-11-20T15:42:08.841Z,26.63
2022-11-20T15:45:12.139Z,30.00
2022-11-20T15:48:19.352Z,29.58
2022-11-20T15:51:32.544Z,33.80
2022-11-20T15:54:40.050Z,30.40
2022-11-20T15:57:44.290Z,32.40
2022-11-20T16:00:47.615Z,28.02
2022-11-20T16:03:52.055Z,31.17
2022-11-20T16:06:56.293Z,31.55
2022-11-20T16:09:59.501Z,30.33
2022-11-20T16:13:22.003Z,33.67
2022-11-20T16:16:33.907Z,31.58
2022-11-20T16:19:37.061Z,37.30
2022-11-20T16:22:40.129Z,36.70
2022-11-20T16:25:44.428Z,28.90
2022-11-20T16:28:48.493Z,74.10
2022-11-20T16:31:52.402Z,102.65
2022-11-20T16:34:56.134Z,129.10
2022-11-20T16:38:03.965Z,182.02
2022-11-20T16:41:14.684Z,154.87
2022-11-20T16:44:18.982Z,217.63
2022-11-20T16:47:22.266Z,290.92
2022-11-20T16:50:25.412Z,267.35
2022-11-20T16:53:28.375Z,252.40
2022-11-20T16:56:31.653Z,245.93
2022-11-20T16:59:35.390Z,210.13
2022-11-20T17:02:39.198Z,175.68
2022-11-20T17:05:43.176Z,107.30
2022-11-20T17:08:47.574Z,78.68
2022-11-20T17:11:53.445Z,73.03
2022-11-20T17:14:57.776Z,58.00
2022-11-20T17:18:04.647Z,65.82
2022-11-20T17:21:15.120Z,71.25
2022-11-20T17:24:30.490Z,73.62
2022-11-20T17:27:39.837Z,49.03
2022-11-20T17:30:45.425Z,63.23
2022-11-20T17:33:49.379Z,75.75
2022-11-20T17:36:54.300Z,85.15
2022-11-20T17:39:57.665Z,54.50
2022-11-20T17:43:02.518Z,52.20
2022-11-20T17:46:15.098Z,49.37
2022-11-20T17:49:22.974Z,58.28
2022-11-20T17:52:28.815Z,68.07
2022-11-20T17:55:55.685Z,67.70
2022-11-20T17:59:10.394Z,64.23
2022-11-20T18:02:15.210Z,67.47
2022-11-20T18:05:18.703Z,65.93
2022-11-20T18:08:22.633Z,86.37
2022-11-20T18:11:30.053Z,103.85
2022-11-20T18:14:36.370Z,86.00
2022-11-20T18:17:41.733Z,113.57
2022-11-20T18:20:45.132Z,95.85
2022-11-20T18:23:48.780Z,88.87
2022-11-20T18:26:52.416Z,120.05
2022-11-20T18:29:56.156Z,105.00
2022-11-20T18:32:59.414Z,118.07
2022-11-20T18:36:13.821Z,128.55
2022-11-20T18:39:17.246Z,125.80
2022-11-20T18:42:39.175Z,130.65
2022-11-20T18:45:42.696Z,104.20
2022-11-20T18:48:46.867Z,110.43
2022-11-20T18:51:50.629Z,132.18
2022-11-20T18:54:54.478Z,123.50
2022-11-20T18:57:57.849Z,112.35
2022-11-20T19:01:07.145Z,120.60
2022-11-20T19:04:13.130Z,118.90
2022-11-20T19:07:17.175Z,116.50
2022-11-20T19:10:21.833Z,120.28
2022-11-20T19:13:26.811Z,123.97
2022-11-20T19:16:30.557Z,140.97
2022-11-20T19:19:37.677Z,154.70
2022-11-20T19:22:41.624Z,148.73
2022-11-20T19:25:45.203Z,153.48
2022-11-20T19:28:49.112Z,166.50
2022-11-20T19:31:54.081Z,164.10
2022-11-20T19:34:58.897Z,178.90
2022-11-20T19:38:05.656Z,176.55
2022-11-20T19:41:10.299Z,175.43
2022-11-20T19:44:16.002Z,164.60
2022-11-20T19:47:19.789Z,194.63
2022-11-20T19:50:25.990Z,176.87
2022-11-20T19:53:31.268Z,195.50
2022-11-20T19:56:36.211Z,179.75
2022-11-20T19:59:40.140Z,185.77
2022-11-20T20:02:44.729Z,188.90
2022-11-20T20:05:48.303Z,187.40
2022-11-20T20:08:57.384Z,175.87
2022-11-20T20:12:01.116Z,193.10
2022-11-20T20:15:05.882Z,193.68
2022-11-20T20:18:09.659Z,185.03
2022-11-20T20:21:15.339Z,197.43
2022-11-20T20:24:18.966Z,231.87
2022-11-20T20:27:23.640Z,186.70
2022-11-20T20:30:27.129Z,148.43
2022-11-20T20:33:31.232Z,150.03
2022-11-20T20:36:34.623Z,126.77
2022-11-20T20:39:38.132Z,127.68
2022-11-20T20:42:43.796Z,134.82
2022-11-20T20:45:48.596Z,126.15
2022-11-20T20:48:54.718Z,124.67
2022-11-20T20:51:57.955Z,125.10
2022-11-20T20:55:03.098Z,128.60
2022-11-20T20:58:07.923Z,109.18
2022-11-20T21:01:18.253Z,106.07
2022-11-20T21:04:22.171Z,107.47
2022-11-20T21:07:25.357Z,98.40
2022-11-20T21:10:31.001Z,133.15
2022-11-20T21:13:39.692Z,110.07
2022-11-20T21:16:44.238Z,93.32
2022-11-20T21:19:47.317Z,98.77
2022-11-20T21:22:50.661Z,97.03
2022-11-20T21:25:53.888Z,105.20
2022-11-20T21:28:58.015Z,98.82
2022-11-20T21:32:01.096Z,95.45
2022-11-20T21:35:03.939Z,98.67
2022-11-20T21:38:06.727Z,95.60
2022-11-20T21:41:11.251Z,91.22
2022-11-20T21:44:30.579Z,89.40
2022-11-20T21:47:34.204Z,90.78
2022-11-20T21:50:37.081Z,87.20
2022-11-20T21:53:40.585Z,91.50
2022-11-20T21:56:43.401Z,87.40
2022-11-20T21:59:46.563Z,89.40
2022-11-20T22:02:49.266Z,87.07
2022-11-20T22:05:58.752Z,81.27
2022-11-20T22:09:04.679Z,82.20
2022-11-20T22:12:07.629Z,92.15
2022-11-20T22:15:10.854Z,83.70
2022-11-20T22:18:13.988Z,86.35
2022-11-20T22:21:18.473Z,80.27
2022-11-20T22:24:22.547Z,82.33
2022-11-20T22:27:25.678Z,74.90
2022-11-20T22:30:28.523Z,78.15
2022-11-20T22:33:32.431Z,72.32
2022-11-20T22:36:37.358Z,95.40
2022-11-20T22:39:40.130Z,94.90
2022-11-20T22:42:47.020Z,114.00
2022-11-20T22:45:49.886Z,119.62
2022-11-20T22:48:57.555Z,135.77
2022-11-20T22:52:00.372Z,78.70
2022-11-20T22:55:03.237Z,83.17
2022-11-20T22:58:06.129Z,145.82
2022-11-20T23:01:14.505Z,133.30
2022-11-20T23:04:17.320Z,146.52
2022-11-20T23:07:22.823Z,106.97
2022-11-20T23:10:25.731Z,239.07
2022-11-20T23:13:29.208Z,114.30
2022-11-20T23:16:33.106Z,115.68
2022-11-20T23:19:37.163Z,128.25
2022-11-20T23:22:39.870Z,141.20
2022-11-20T23:25:42.732Z,256.63
2022-11-20T23:28:46.097Z,138.82
2022-11-20T23:31:49.507Z,113.20
2022-11-20T23:34:52.283Z,140.80
2022-11-20T23:37:55.177Z,126.13
2022-11-20T23:40:58.121Z,187.27
2022-11-20T23:44:00.979Z,67.78
2022-11-20T23:47:03.799Z,90.05
2022-11-20T23:50:07.123Z,77.57
2022-11-20T23:53:10.710Z,78.50
2022-11-20T23:56:14.837Z,96.77
2022-11-20T23:59:17.704Z,88.15
